Time;durP1;ratioP1;P1;durP2;ratioP2;P2;SDS_P1;SDS_P2;PMS_P1;PMS_P2;Temp;Humidity;BMP_temperature;BMP_pressure;BME280_temperature;BME280_humidity;BME280_pressure;Samples;Min_cycle;Max_cycle;Signal;HPM_P1;HPM_P2
2022/04/14 00:00:29;;;;;;;;;;;;;;;10.09;97.87;102019.34;5084962;28;19928;-69
2022/04/14 00:02:55;;;;;;;;;;;;;;;10.04;97.49;102015.66;5082913;28;20328;-69
2022/04/14 00:05:20;;;;;;;;;;;;;;;10.02;97.00;102018.16;5085526;28;19931;-68
2022/04/14 00:07:45;;;;;;;;;;;;;;;9.99;97.73;102005.16;5085395;28;20009;-68
2022/04/14 00:10:11;;;;;;;;;;;;;;;9.98;97.66;102003.41;5083856;28;20050;-69
2022/04/14 00:12:37;;;;;;;;;;;;;;;9.97;96.93;102009.34;5103150;27;19916;-69
2022/04/14 00:15:04;;;;;;;;;;;;;;;9.97;97.74;102011.91;5084931;28;19970;-68
2022/04/14 00:17:32;;;;;;;;;;;;;;;9.96;97.72;102004.16;5084285;28;20331;-68
2022/04/14 00:19:57;;;;;;;;;;;;;;;9.97;95.53;102006.78;5085675;28;19928;-69
2022/04/14 00:22:22;;;;;;;;;;;;;;;9.98;96.70;102002.53;5085297;28;19933;-68
2022/04/14 00:24:48;;;;;;;;;;;;;;;9.99;96.14;102001.72;5082663;28;19967;-68
2022/04/14 00:27:16;;;;;;;;;;;;;;;9.99;96.35;101992.31;5084858;28;19928;-68
2022/04/14 00:29:41;;;;;;;;;;;;;;;10.01;97.74;101989.81;5082508;28;20340;-68
2022/04/14 00:32:07;;;;;;;;;;;;;;;10.00;99.20;101988.94;5084479;28;19964;-69
2022/04/14 00:34:32;;;;;;;;;;;;;;;9.99;99.01;101994.88;5085251;28;19939;-69
2022/04/14 00:36:58;;;;;;;;;;;;;;;9.98;98.31;101993.13;5086547;28;20007;-70
2022/04/14 00:39:23;;;;;;;;;;;;;;;9.98;99.33;101993.13;5083896;28;20033;-70
2022/04/14 00:41:48;;;;;;;;;;;;;;;9.96;99.80;101989.63;5080615;28;19990;-68
2022/04/14 00:44:13;;;;;;;;;;;;;;;9.93;99.93;101990.31;5083463;28;19935;-70
2022/04/14 00:46:39;;;;;;;;;;;;;;;9.91;99.62;101985.94;5083510;28;19924;-69
2022/04/14 00:49:04;;;;;;;;;;;;;;;9.89;99.13;101985.88;5083364;28;19974;-69
2022/04/14 00:51:29;;;;;;;;;;;;;;;9.86;97.04;101988.28;5084247;28;19924;-69
2022/04/14 00:53:55;;;;;;;;;;;;;;;9.85;97.71;101994.22;5084218;28;20376;-69
2022/04/14 00:56:20;;;;;;;;;;;;;;;9.84;97.54;101991.59;5066906;28;19924;-70
2022/04/14 00:58:45;;;;;;;;;;;;;;;9.85;100.00;101989.09;5085215;28;19920;-70
2022/04/14 01:01:12;;;;;;;;;;;;;;;9.81;98.28;101988.84;5086959;28;20019;-71
2022/04/14 01:03:38;;;;;;;;;;;;;;;9.79;98.88;101996.50;5085816;28;19946;-70
2022/04/14 01:06:03;;;;;;;;;;;;;;;9.78;98.91;101988.72;5082594;28;19920;-70
2022/04/14 01:08:29;;;;;;;;;;;;;;;9.76;98.54;101998.00;5084594;28;19978;-70
2022/04/14 01:10:55;;;;;;;;;;;;;;;9.75;98.61;101993.69;5084133;28;19928;-70
2022/04/14 01:13:21;;;;;;;;;;;;;;;9.72;97.80;101990.97;5082902;28;20307;-70
2022/04/14 01:15:47;;;;;;;;;;;;;;;9.71;98.38;101987.53;5081914;28;20032;-70
2022/04/14 01:18:12;;;;;;;;;;;;;;;9.70;97.86;101990.00;5082705;28;19924;-69
2022/04/14 01:20:39;;;;;;;;;;;;;;;9.67;97.10;101985.59;5085909;28;20349;-70
2022/04/14 01:23:04;;;;;;;;;;;;;;;9.67;98.25;101991.63;5082276;28;20384;-70
2022/04/14 01:25:32;;;;;;;;;;;;;;;9.65;100.00;101993.25;5081834;28;20005;-70
2022/04/14 01:27:57;;;;;;;;;;;;;;;9.64;99.03;101996.59;5082634;28;19943;-70
2022/04/14 01:30:22;;;;;;;;;;;;;;;9.62;97.74;101987.06;5084156;28;19920;-69
2022/04/14 01:32:48;;;;;;;;;;;;;;;9.61;98.99;101985.31;5083780;28;20007;-70
2022/04/14 01:35:13;;;;;;;;;;;;;;;9.58;97.51;101983.44;5085348;28;19942;-70
2022/04/14 01:37:39;;;;;;;;;;;;;;;9.56;99.15;101992.78;5079432;28;20411;-70
2022/04/14 01:40:04;;;;;;;;;;;;;;;9.57;99.70;101994.53;5082941;28;20396;-70
2022/04/14 01:42:29;;;;;;;;;;;;;;;9.56;97.82;101992.78;5083365;28;19971;-70
2022/04/14 01:44:55;;;;;;;;;;;;;;;9.54;98.59;101994.41;5081101;28;19928;-70
2022/04/14 01:47:20;;;;;;;;;;;;;;;9.53;100.00;101992.63;5080280;28;20292;-70
2022/04/14 01:49:45;;;;;;;;;;;;;;;9.51;99.17;101990.78;5080229;28;20459;-70
2022/04/14 01:52:11;;;;;;;;;;;;;;;9.50;96.73;101986.44;5083116;28;20032;-70
2022/04/14 01:54:36;;;;;;;;;;;;;;;9.47;99.50;101991.44;5083672;28;19931;-70
2022/04/14 01:57:01;;;;;;;;;;;;;;;9.46;99.54;101995.66;5082958;28;20243;-70
2022/04/14 01:59:27;;;;;;;;;;;;;;;9.42;97.94;101982.63;5084647;28;20024;-70
2022/04/14 02:01:52;;;;;;;;;;;;;;;9.41;98.26;101997.16;5086140;28;19978;-70
2022/04/14 02:04:17;;;;;;;;;;;;;;;9.43;98.39;101998.09;5082132;28;19916;-70
2022/04/14 02:06:43;;;;;;;;;;;;;;;9.41;98.37;101999.72;5082881;28;19928;-70
2022/04/14 02:09:08;;;;;;;;;;;;;;;9.39;99.59;102003.88;5082398;28;20303;-71
2022/04/14 02:11:33;;;;;;;;;;;;;;;9.38;99.46;102000.44;5085157;28;19935;-70
2022/04/14 02:13:59;;;;;;;;;;;;;;;9.39;100.00;102007.31;5080836;28;19927;-70
2022/04/14 02:16:24;;;;;;;;;;;;;;;9.40;100.00;102003.06;5080668;28;19924;-70
2022/04/14 02:18:49;;;;;;;;;;;;;;;9.36;100.00;102009.75;5082312;28;19928;-70
2022/04/14 02:21:14;;;;;;;;;;;;;;;9.33;99.84;102001.88;5082792;28;20026;-70
2022/04/14 02:23:40;;;;;;;;;;;;;;;9.32;100.00;102004.38;5078938;28;19920;-70
2022/04/14 02:26:05;;;;;;;;;;;;;;;9.29;100.00;101999.09;5082023;28;19927;-70
2022/04/14 02:28:30;;;;;;;;;;;;;;;9.30;100.00;102003.41;5080231;28;20426;-70
2022/04/14 02:30:55;;;;;;;;;;;;;;;9.28;100.00;102005.91;5101073;27;19919;-70
2022/04/14 02:33:21;;;;;;;;;;;;;;;9.26;100.00;102009.19;5085851;28;19920;-70
2022/04/14 02:35:46;;;;;;;;;;;;;;;9.25;100.00;102013.44;5081377;28;20662;-70
2022/04/14 02:38:12;;;;;;;;;;;;;;;9.23;100.00;102012.50;5081480;28;19922;-70
2022/04/14 02:40:37;;;;;;;;;;;;;;;9.21;100.00;102008.06;5082090;28;19924;-70
2022/04/14 02:43:02;;;;;;;;;;;;;;;9.19;100.00;102015.69;5083320;28;19920;-70
2022/04/14 02:45:28;;;;;;;;;;;;;;;9.18;100.00;102018.19;5080674;28;20376;-70
2022/04/14 02:47:54;;;;;;;;;;;;;;;9.14;100.00;102007.75;5082491;28;19962;-70
2022/04/14 02:50:20;;;;;;;;;;;;;;;9.11;100.00;102012.72;5082245;28;20557;-70
2022/04/14 02:52:46;;;;;;;;;;;;;;;9.10;100.00;102013.53;5082482;28;19920;-70
2022/04/14 02:55:11;;;;;;;;;;;;;;;9.07;100.00;102007.34;5084253;28;19928;-70
2022/04/14 02:57:36;;;;;;;;;;;;;;;9.04;100.00;102013.22;5080149;28;19938;-70
2022/04/14 03:00:06;;;;;;;;;;;;;;;9.04;100.00;102013.22;5083448;28;19927;-70
2022/04/14 03:02:31;;;;;;;;;;;;;;;9.00;100.00;102007.84;5080432;28;20296;-70
2022/04/14 03:04:58;;;;;;;;;;;;;;;8.97;100.00;102010.22;5082905;28;19924;-70
2022/04/14 03:07:23;;;;;;;;;;;;;;;8.94;100.00;102010.97;5080281;28;19955;-70
2022/04/14 03:09:48;;;;;;;;;;;;;;;8.92;100.00;102011.66;5083467;28;20367;-70
2022/04/14 03:12:14;;;;;;;;;;;;;;;8.88;100.00;102008.06;5080178;28;19928;-70
2022/04/14 03:14:39;;;;;;;;;;;;;;;8.85;100.00;102010.47;5079221;28;19943;-71
2022/04/14 03:17:05;;;;;;;;;;;;;;;8.82;100.00;102002.63;5083137;28;19924;-71
2022/04/14 03:19:30;;;;;;;;;;;;;;;8.79;100.00;102010.13;5082625;28;19920;-71
2022/04/14 03:21:56;;;;;;;;;;;;;;;8.75;100.00;102009.09;5082316;28;20633;-72
2022/04/14 03:24:21;;;;;;;;;;;;;;;8.74;100.00;102009.91;5081292;28;19924;-71
2022/04/14 03:26:46;;;;;;;;;;;;;;;8.74;100.00;102003.91;5078948;28;19946;-71
2022/04/14 03:29:11;;;;;;;;;;;;;;;8.69;100.00;102007.91;5080452;28;19958;-71
2022/04/14 03:31:37;;;;;;;;;;;;;;;8.64;100.00;102007.63;5078491;28;19928;-71
2022/04/14 03:34:02;;;;;;;;;;;;;;;8.62;100.00;102018.63;5079635;28;19938;-70
2022/04/14 03:36:27;;;;;;;;;;;;;;;8.56;100.00;102006.34;5082152;28;19928;-70
2022/04/14 03:38:53;;;;;;;;;;;;;;;8.52;100.00;102012.97;5079836;28;19973;-70
2022/04/14 03:41:18;;;;;;;;;;;;;;;8.47;100.00;102006.72;5080973;28;19932;-70
2022/04/14 03:43:43;;;;;;;;;;;;;;;8.42;100.00;102014.94;5083462;28;19986;-70
2022/04/14 03:46:08;;;;;;;;;;;;;;;8.37;100.00;102012.13;5080074;28;19963;-71
2022/04/14 03:48:34;;;;;;;;;;;;;;;8.32;100.00;102010.97;5086360;28;19920;-70
2022/04/14 03:51:00;;;;;;;;;;;;;;;8.31;100.00;102016.88;5081398;28;19923;-71
2022/04/14 03:53:25;;;;;;;;;;;;;;;8.31;100.00;102006.63;5084008;28;19924;-71
2022/04/14 03:55:51;;;;;;;;;;;;;;;8.26;100.00;102014.09;5081251;28;19938;-71
2022/04/14 03:58:16;;;;;;;;;;;;;;;8.20;100.00;102018.88;5079281;28;19920;-72
2022/04/14 04:00:41;;;;;;;;;;;;;;;8.13;100.00;102013.28;5081553;28;20395;-71
2022/04/14 04:03:13;;;;;;;;;;;;;;;8.07;100.00;102026.66;5079693;28;19977;-71
2022/04/14 04:05:38;;;;;;;;;;;;;;;7.98;100.00;102014.19;5079808;28;19927;-70
2022/04/14 04:08:04;;;;;;;;;;;;;;;7.88;100.00;102009.34;5086440;28;19919;-71
2022/04/14 04:10:30;;;;;;;;;;;;;;;7.85;100.00;102016.88;5082890;28;19931;-71
2022/04/14 04:12:55;;;;;;;;;;;;;;;7.83;100.00;102025.28;5083634;28;19920;-71
2022/04/14 04:15:20;;;;;;;;;;;;;;;7.82;100.00;102026.91;5086194;28;19920;-71
2022/04/14 04:17:46;;;;;;;;;;;;;;;7.83;100.00;102026.16;5087295;28;19928;-71
2022/04/14 04:20:12;;;;;;;;;;;;;;;7.80;100.00;102029.41;5084105;28;19924;-72
2022/04/14 04:22:37;;;;;;;;;;;;;;;7.80;100.00;102037.06;5084469;28;19940;-71
2022/04/14 04:25:03;;;;;;;;;;;;;;;7.77;100.00;102029.25;5083732;28;20428;-71
2022/04/14 04:27:29;;;;;;;;;;;;;;;7.74;100.00;102030.72;5099244;28;20307;-70
2022/04/14 04:29:54;;;;;;;;;;;;;;;7.72;100.00;102034.88;5085946;28;19928;-71
2022/04/14 04:32:19;;;;;;;;;;;;;;;7.70;100.00;102045.00;5083390;28;19978;-71
2022/04/14 04:34:44;;;;;;;;;;;;;;;7.67;100.00;102036.28;5083998;28;19920;-71
2022/04/14 04:37:10;;;;;;;;;;;;;;;7.61;100.00;102047.03;5065998;28;19924;-71
2022/04/14 04:39:35;;;;;;;;;;;;;;;7.59;100.00;102045.22;5086692;28;19978;-71
2022/04/14 04:42:00;;;;;;;;;;;;;;;7.59;100.00;102048.66;5083884;28;19928;-71
2022/04/14 04:44:26;;;;;;;;;;;;;;;7.58;100.00;102048.53;5085969;28;19940;-71
2022/04/14 04:46:51;;;;;;;;;;;;;;;7.58;100.00;102051.09;5085977;28;19998;-70
2022/04/14 04:49:16;;;;;;;;;;;;;;;7.56;100.00;102051.00;5082934;28;19927;-71
2022/04/14 04:51:41;;;;;;;;;;;;;;;7.58;100.00;102053.66;5081457;28;19975;-71
2022/04/14 04:54:07;;;;;;;;;;;;;;;7.59;100.00;102058.00;5078881;28;19916;-71
2022/04/14 04:56:32;;;;;;;;;;;;;;;7.60;100.00;102059.75;5081570;28;20029;-70
2022/04/14 04:58:58;;;;;;;;;;;;;;;7.62;100.00;102056.50;5081684;28;20467;-71
2022/04/14 05:01:23;;;;;;;;;;;;;;;7.64;100.00;102057.44;5064594;28;19935;-71
2022/04/14 05:03:49;;;;;;;;;;;;;;;7.67;100.00;102060.22;5081488;28;19924;-70
2022/04/14 05:06:14;;;;;;;;;;;;;;;7.70;99.86;102064.59;5079730;28;19982;-70
2022/04/14 05:08:39;;;;;;;;;;;;;;;7.71;99.91;102062.16;5082316;28;19982;-70
2022/04/14 05:11:05;;;;;;;;;;;;;;;7.72;97.31;102061.38;5084091;28;20300;-70
2022/04/14 05:13:30;;;;;;;;;;;;;;;7.72;97.96;102069.03;5085655;28;19920;-69
2022/04/14 05:15:55;;;;;;;;;;;;;;;7.74;98.24;102075.13;5065367;28;19971;-70
2022/04/14 05:18:20;;;;;;;;;;;;;;;7.76;97.43;102064.97;5067342;28;19928;-70
2022/04/14 05:20:45;;;;;;;;;;;;;;;7.76;100.00;102063.28;5084378;28;19932;-69
2022/04/14 05:23:11;;;;;;;;;;;;;;;7.80;97.31;102078.06;5064825;28;20367;-69
2022/04/14 05:25:38;;;;;;;;;;;;;;;7.80;100.00;102069.50;5084716;28;19965;-69
2022/04/14 05:28:04;;;;;;;;;;;;;;;7.83;100.00;102079.94;5081135;28;19942;-71
2022/04/14 05:30:30;;;;;;;;;;;;;;;7.90;97.53;102084.59;5065297;28;19924;-70
2022/04/14 05:32:55;;;;;;;;;;;;;;;7.93;97.29;102083.88;5080082;28;19924;-70
2022/04/14 05:35:21;;;;;;;;;;;;;;;7.96;97.59;102089.19;5082330;28;19973;-70
2022/04/14 05:37:46;;;;;;;;;;;;;;;7.97;98.38;102083.28;5085126;28;20449;-70
2022/04/14 05:40:12;;;;;;;;;;;;;;;8.02;98.88;102095.56;5084737;28;20433;-71
2022/04/14 05:42:38;;;;;;;;;;;;;;;8.09;100.00;102095.91;5088877;28;20014;-70
2022/04/14 05:45:03;;;;;;;;;;;;;;;8.16;99.07;102093.78;5083147;28;19920;-71
2022/04/14 05:47:28;;;;;;;;;;;;;;;8.19;100.00;102099.09;5084257;28;20386;-71
2022/04/14 05:49:53;;;;;;;;;;;;;;;8.30;98.49;102098.00;5085295;28;19932;-70
2022/04/14 05:52:20;;;;;;;;;;;;;;;8.37;99.60;102104.38;5083830;28;20010;-69
2022/04/14 05:54:46;;;;;;;;;;;;;;;8.53;98.56;102106.16;5085035;28;19924;-69
2022/04/14 05:57:12;;;;;;;;;;;;;;;8.67;99.46;102101.78;5084410;28;19916;-69
2022/04/14 05:59:37;;;;;;;;;;;;;;;8.79;100.00;102100.78;5081816;28;19920;-70
2022/04/14 06:02:03;;;;;;;;;;;;;;;9.06;100.00;102105.66;5084619;28;19928;-70
2022/04/14 06:04:28;;;;;;;;;;;;;;;9.41;100.00;102099.84;5083903;28;20379;-69
2022/04/14 06:06:53;;;;;;;;;;;;;;;9.82;98.41;102103.63;5085290;28;19920;-70
2022/04/14 06:09:19;;;;;;;;;;;;;;;10.33;98.13;102096.81;5081873;28;19974;-70
2022/04/14 06:11:44;;;;;;;;;;;;;;;10.92;97.36;102099.66;5086286;28;19920;-69
2022/04/14 06:14:09;;;;;;;;;;;;;;;11.59;96.63;102101.78;5085165;28;20376;-71
2022/04/14 06:16:35;;;;;;;;;;;;;;;12.33;95.52;102104.09;5086204;28;19981;-70
2022/04/14 06:19:00;;;;;;;;;;;;;;;13.25;94.93;102099.94;5067239;28;20423;-70
2022/04/14 06:21:25;;;;;;;;;;;;;;;14.17;90.88;102097.97;5084418;28;20022;-70
2022/04/14 06:23:50;;;;;;;;;;;;;;;14.92;86.05;102095.16;5082829;28;20388;-70
2022/04/14 06:26:16;;;;;;;;;;;;;;;15.48;81.10;102094.22;5083749;28;19934;-70
2022/04/14 06:28:42;;;;;;;;;;;;;;;16.05;81.94;102098.31;5082040;28;19924;-70
2022/04/14 06:31:07;;;;;;;;;;;;;;;16.84;75.85;102094.16;5086600;28;20021;-71
2022/04/14 06:33:32;;;;;;;;;;;;;;;17.54;81.09;102098.22;5066806;28;19920;-70
2022/04/14 06:36:00;;;;;;;;;;;;;;;18.21;73.62;102101.16;5082667;28;19915;-70
2022/04/14 06:38:27;;;;;;;;;;;;;;;18.87;75.37;102103.06;5083344;28;20380;-71
2022/04/14 06:40:53;;;;;;;;;;;;;;;19.45;72.51;102102.91;5086933;28;20447;-71
2022/04/14 06:43:18;;;;;;;;;;;;;;;20.09;61.67;102095.75;5085981;28;20018;-70
2022/04/14 06:45:43;;;;;;;;;;;;;;;20.38;68.39;102102.91;5084373;28;19920;-70
2022/04/14 06:48:09;;;;;;;;;;;;;;;20.76;71.64;102097.97;5085380;28;19926;-70
2022/04/14 06:50:35;;;;;;;;;;;;;;;21.42;59.28;102102.66;5082608;28;19946;-70
2022/04/14 06:53:00;;;;;;;;;;;;;;;21.86;67.07;102095.75;5081584;28;20472;-70
2022/04/14 06:55:25;;;;;;;;;;;;;;;22.31;56.10;102096.66;5084740;28;19931;-70
2022/04/14 06:57:51;;;;;;;;;;;;;;;22.69;61.95;102097.47;5098939;28;19952;-70
2022/04/14 07:00:16;;;;;;;;;;;;;;;22.96;60.44;102091.28;5082021;28;19923;-70
2022/04/14 07:02:49;;;;;;;;;;;;;;;23.25;50.09;102093.78;5081337;28;21645;-71
2022/04/14 07:05:14;;;;;;;;;;;;;;;23.78;56.44;102092.63;5084446;28;19967;-69
2022/04/14 07:07:39;;;;;;;;;;;;;;;24.19;57.89;102098.41;5085590;28;20411;-71
2022/04/14 07:10:05;;;;;;;;;;;;;;;24.73;51.52;102098.78;5082749;28;20497;-71
2022/04/14 07:12:30;;;;;;;;;;;;;;;25.18;43.63;102101.78;5080087;28;19927;-72
2022/04/14 07:14:55;;;;;;;;;;;;;;;25.29;46.44;102092.84;5081269;28;19924;-70
2022/04/14 07:17:22;;;;;;;;;;;;;;;25.68;49.20;102099.31;5085431;28;19932;-69
2022/04/14 07:19:47;;;;;;;;;;;;;;;25.94;48.36;102100.72;5079879;28;19953;-69
2022/04/14 07:22:16;;;;;;;;;;;;;;;26.10;41.63;102106.59;5084005;28;19927;-69
2022/04/14 07:24:41;;;;;;;;;;;;;;;26.42;43.99;102106.06;5086083;28;20392;-71
2022/04/14 07:27:06;;;;;;;;;;;;;;;27.00;42.49;102112.88;5084407;28;20023;-69
2022/04/14 07:29:32;;;;;;;;;;;;;;;27.57;46.92;102109.00;5085070;28;21678;-69
2022/04/14 07:31:57;;;;;;;;;;;;;;;27.99;45.85;102115.06;5084936;28;19920;-71
2022/04/14 07:34:22;;;;;;;;;;;;;;;28.54;42.97;102103.09;5079928;28;19928;-70
2022/04/14 07:36:47;;;;;;;;;;;;;;;29.08;38.88;102116.56;5086565;28;19916;-71
2022/04/14 07:39:13;;;;;;;;;;;;;;;29.29;40.72;102109.75;5084091;28;20434;-69
2022/04/14 07:41:38;;;;;;;;;;;;;;;29.18;41.23;102114.50;5088209;28;19924;-70
2022/04/14 07:44:04;;;;;;;;;;;;;;;29.52;35.09;102106.44;5088978;28;20425;-70
2022/04/14 07:46:29;;;;;;;;;;;;;;;29.74;37.13;102111.06;5086447;28;19927;-71
2022/04/14 07:48:54;;;;;;;;;;;;;;;29.94;32.87;102119.22;5086795;28;19932;-71
2022/04/14 07:51:20;;;;;;;;;;;;;;;30.37;33.58;102118.66;5086194;28;19924;-69
2022/04/14 07:53:45;;;;;;;;;;;;;;;30.59;35.40;102115.25;5087723;28;19928;-69
2022/04/14 07:56:10;;;;;;;;;;;;;;;30.85;31.49;102119.63;5085703;28;19920;-70
2022/04/14 07:58:38;;;;;;;;;;;;;;;30.96;32.17;102126.28;5086342;28;19938;-70
2022/04/14 08:01:03;;;;;;;;;;;;;;;30.95;34.35;102124.56;5087410;28;20406;-70
2022/04/14 08:03:28;;;;;;;;;;;;;;;31.25;30.29;102127.00;5084565;28;19920;-70
2022/04/14 08:05:54;;;;;;;;;;;;;;;31.41;31.75;102129.91;5087117;28;19924;-71
2022/04/14 08:08:20;;;;;;;;;;;;;;;31.46;34.24;102123.47;5085811;28;20291;-69
2022/04/14 08:10:48;;;;;;;;;;;;;;;31.60;31.96;102119.41;5085751;28;19977;-69
2022/04/14 08:13:13;;;;;;;;;;;;;;;31.69;32.08;102124.38;5086228;28;19916;-70
2022/04/14 08:15:39;;;;;;;;;;;;;;;32.06;29.68;102122.88;5081874;28;20275;-70
2022/04/14 08:18:06;;;;;;;;;;;;;;;32.42;31.09;102116.00;5067095;28;19966;-70
2022/04/14 08:20:32;;;;;;;;;;;;;;;32.75;33.32;102112.75;5087430;28;19935;-69
2022/04/14 08:22:58;;;;;;;;;;;;;;;33.22;29.73;102115.06;5087057;28;19920;-71
2022/04/14 08:25:33;;;;;;;;;;;;;;;33.21;27.92;102118.66;5088135;28;19979;-70
2022/04/14 08:28:00;;;;;;;;;;;;;;;33.46;29.83;102121.91;5078876;28;19917;-72
2022/04/14 08:30:26;;;;;;;;;;;;;;;33.73;27.82;102122.34;5087849;28;19951;-72
2022/04/14 08:32:53;;;;;;;;;;;;;;;33.83;28.45;102118.28;5084163;28;19928;-70
2022/04/14 08:35:19;;;;;;;;;;;;;;;34.02;29.03;102112.06;5089243;28;19970;-69
2022/04/14 08:37:45;;;;;;;;;;;;;;;34.47;30.48;102116.00;5092976;28;20034;-70
2022/04/14 08:40:11;;;;;;;;;;;;;;;34.76;29.72;102115.28;5092613;28;19962;-69
2022/04/14 08:42:41;;;;;;;;;;;;;;;34.70;25.43;102114.75;5088932;28;19916;-70
2022/04/14 08:45:16;;;;;;;;;;;;;;;34.62;27.10;102116.03;5087441;28;20372;-70
2022/04/14 08:47:41;;;;;;;;;;;;;;;34.95;26.33;102104.50;5088560;28;19916;-71
2022/04/14 08:50:08;;;;;;;;;;;;;;;35.12;26.94;102117.78;5090063;28;19920;-72
2022/04/14 08:52:34;;;;;;;;;;;;;;;35.23;26.92;102110.97;5087568;28;19973;-71
2022/04/14 08:55:01;;;;;;;;;;;;;;;35.39;26.77;102120.72;5088064;28;19960;-70
2022/04/14 08:57:26;;;;;;;;;;;;;;;35.17;23.22;102118.38;5087401;28;20030;-70
2022/04/14 08:59:52;;;;;;;;;;;;;;;34.89;23.99;102118.19;5090421;28;19918;-70
2022/04/14 09:02:18;;;;;;;;;;;;;;;35.09;25.36;102115.28;5086134;28;20023;-70
2022/04/14 09:04:44;;;;;;;;;;;;;;;35.30;25.08;102112.34;5078627;28;20053;-70
2022/04/14 09:07:09;;;;;;;;;;;;;;;35.69;24.27;102109.25;5088108;28;19916;-69
2022/04/14 09:09:35;;;;;;;;;;;;;;;36.17;23.69;102110.88;5089302;28;19912;-70
2022/04/14 09:12:00;;;;;;;;;;;;;;;35.94;24.19;102112.22;5089496;28;19934;-69
2022/04/14 09:14:27;;;;;;;;;;;;;;;36.25;21.17;102110.38;5087641;28;20375;-68
2022/04/14 09:16:52;;;;;;;;;;;;;;;36.30;22.64;102110.13;5092374;28;20015;-69
2022/04/14 09:19:18;;;;;;;;;;;;;;;35.95;21.23;102105.94;5086294;28;20464;-71
2022/04/14 09:21:57;;;;;;;;;;;;;;;35.82;23.24;102102.22;5087104;28;20279;-70
2022/04/14 09:24:37;;;;;;;;;;;;;;;35.96;23.33;102104.97;5083853;28;19912;-69
2022/04/14 09:27:02;;;;;;;;;;;;;;;36.38;22.51;102097.09;5085626;28;19996;-70
2022/04/14 09:29:28;;;;;;;;;;;;;;;36.79;20.52;102092.75;5084365;28;19999;-70
2022/04/14 09:31:54;;;;;;;;;;;;;;;36.44;20.38;102086.91;5090879;28;19920;-69
2022/04/14 09:34:38;;;;;;;;;;;;;;;36.54;20.35;102086.34;5088046;28;19919;-69
2022/04/14 09:37:09;;;;;;;;;;;;;;;36.36;21.93;102080.28;5090072;28;19928;-69
2022/04/14 09:39:48;;;;;;;;;;;;;;;37.16;21.20;102078.81;5086913;28;19920;-70
2022/04/14 09:42:14;;;;;;;;;;;;;;;37.89;18.80;102076.66;5081878;28;19927;-70
2022/04/14 09:44:39;;;;;;;;;;;;;;;38.32;20.24;102071.00;5087375;28;19920;-72
2022/04/14 09:47:04;;;;;;;;;;;;;;;38.74;17.24;102067.13;5087748;28;19920;-69
2022/04/14 09:49:29;;;;;;;;;;;;;;;39.04;20.31;102072.09;5100620;28;19934;-69
2022/04/14 09:51:55;;;;;;;;;;;;;;;39.35;18.09;102069.84;5086995;28;19968;-70
2022/04/14 09:54:27;;;;;;;;;;;;;;;39.85;18.86;102063.31;5087175;28;19916;-69
2022/04/14 09:56:54;;;;;;;;;;;;;;;40.37;16.37;102061.09;5086738;28;20007;-70
2022/04/14 09:59:21;;;;;;;;;;;;;;;40.29;18.52;102060.84;5085711;28;19932;-70
2022/04/14 10:01:47;;;;;;;;;;;;;;;40.42;16.02;102061.59;5089494;28;19970;-70
2022/04/14 10:04:27;;;;;;;;;;;;;;;40.40;16.84;102055.47;5086379;28;19931;-69
2022/04/14 10:07:03;;;;;;;;;;;;;;;40.23;18.89;102059.53;5088812;28;19983;-70
2022/04/14 10:09:31;;;;;;;;;;;;;;;40.16;17.32;102063.66;5087935;28;19912;-69
2022/04/14 10:11:56;;;;;;;;;;;;;;;40.46;15.71;102053.13;5087179;28;19935;-69
2022/04/14 10:14:24;;;;;;;;;;;;;;;40.82;16.09;102077.28;5086182;28;19943;-68
2022/04/14 10:16:50;;;;;;;;;;;;;;;40.84;15.02;102078.03;5079562;28;19920;-70
2022/04/14 10:19:15;;;;;;;;;;;;;;;40.30;14.29;102079.59;5085633;28;19970;-69
2022/04/14 10:21:43;;;;;;;;;;;;;;;39.49;18.10;102087.63;5085061;28;19927;-69
2022/04/14 10:24:08;;;;;;;;;;;;;;;39.19;17.71;102091.63;5087313;28;20370;-69
2022/04/14 10:26:34;;;;;;;;;;;;;;;39.35;16.41;102099.44;5085692;28;20011;-69
2022/04/14 10:29:04;;;;;;;;;;;;;;;39.62;15.51;102089.34;5083106;28;20002;-70
2022/04/14 10:31:33;;;;;;;;;;;;;;;39.34;16.68;102090.50;5086538;28;20048;-69
2022/04/14 10:34:03;;;;;;;;;;;;;;;39.38;17.91;102094.69;5087372;28;19926;-69
2022/04/14 10:36:28;;;;;;;;;;;;;;;40.19;15.20;102093.06;5083550;28;19951;-69
2022/04/14 10:38:55;;;;;;;;;;;;;;;40.05;16.70;102101.38;5085506;28;19966;-69
2022/04/14 10:41:23;;;;;;;;;;;;;;;40.10;15.21;102091.94;5085797;28;20014;-71
2022/04/14 10:43:48;;;;;;;;;;;;;;;40.28;16.33;102086.94;5088324;28;19927;-69
2022/04/14 10:46:17;;;;;;;;;;;;;;;40.68;15.01;102091.88;5088043;28;19924;-68
2022/04/14 10:48:43;;;;;;;;;;;;;;;40.54;15.35;102094.84;5082710;28;19989;-70
2022/04/14 10:51:18;;;;;;;;;;;;;;;40.16;17.46;102091.44;5087551;28;19954;-69
2022/04/14 10:53:49;;;;;;;;;;;;;;;39.55;17.29;102085.34;5080427;28;20014;-70
2022/04/14 10:56:33;;;;;;;;;;;;;;;40.24;16.32;102087.31;5088157;28;19920;-69
2022/04/14 10:58:59;;;;;;;;;;;;;;;39.92;14.45;102083.44;5087027;28;19916;-69
2022/04/14 11:01:58;;;;;;;;;;;;;;;39.51;16.19;102083.88;5091295;28;19931;-69
2022/04/14 11:04:24;;;;;;;;;;;;;;;40.13;14.82;102077.38;5058794;28;19964;-70
2022/04/14 11:06:51;;;;;;;;;;;;;;;39.91;14.50;102087.09;5087775;28;19966;-70
2022/04/14 11:09:35;;;;;;;;;;;;;;;39.15;14.70;102082.06;5085452;28;19920;-68
2022/04/14 11:12:01;;;;;;;;;;;;;;;38.85;16.04;102077.09;5080386;28;19916;-69
2022/04/14 11:14:26;;;;;;;;;;;;;;;38.82;15.97;102086.22;5083828;28;19924;-69
2022/04/14 11:16:52;;;;;;;;;;;;;;;38.39;16.13;102079.50;5087817;28;19931;-68
2022/04/14 11:19:24;;;;;;;;;;;;;;;37.67;16.95;102068.28;5090224;28;19934;-68
2022/04/14 11:22:02;;;;;;;;;;;;;;;37.36;17.63;102073.03;5087407;28;19924;-69
2022/04/14 11:24:33;;;;;;;;;;;;;;;36.54;18.39;102075.63;5087548;28;20268;-69
2022/04/14 11:27:15;;;;;;;;;;;;;;;35.15;19.92;102082.00;5094908;28;19916;-69
2022/04/14 11:29:45;;;;;;;;;;;;;;;33.44;21.41;102073.13;5090779;28;19959;-71
2022/04/14 11:32:11;;;;;;;;;;;;;;;31.95;22.70;102070.97;5091151;28;19924;-69
2022/04/14 11:34:37;;;;;;;;;;;;;;;30.87;24.45;102081.44;5085269;28;19924;-69
2022/04/14 11:37:03;;;;;;;;;;;;;;;29.91;25.20;102068.91;5081399;28;19983;-69
2022/04/14 11:39:29;;;;;;;;;;;;;;;29.26;25.94;102082.50;5089837;28;20398;-69
2022/04/14 11:42:11;;;;;;;;;;;;;;;28.86;26.38;102079.22;5090694;28;19920;-68
2022/04/14 11:44:36;;;;;;;;;;;;;;;28.58;26.99;102083.59;5082907;28;20421;-70
2022/04/14 11:47:03;;;;;;;;;;;;;;;28.53;27.15;102085.47;5088674;28;19916;-68
2022/04/14 11:49:29;;;;;;;;;;;;;;;28.28;28.26;102075.53;5087295;28;20016;-69
2022/04/14 11:51:55;;;;;;;;;;;;;;;28.17;28.75;102077.59;5088444;28;19912;-68
2022/04/14 11:54:22;;;;;;;;;;;;;;;28.07;29.15;102078.72;5084317;28;20411;-68
2022/04/14 11:56:54;;;;;;;;;;;;;;;27.72;29.35;102096.31;5084371;28;19995;-69
2022/04/14 11:59:28;;;;;;;;;;;;;;;27.25;30.05;102087.72;5090226;28;20376;-70
2022/04/14 12:01:54;;;;;;;;;;;;;;;26.89;30.06;102088.47;5084104;28;20277;-69
2022/04/14 12:04:19;;;;;;;;;;;;;;;26.64;30.82;102085.44;5089140;28;19927;-68
2022/04/14 12:06:54;;;;;;;;;;;;;;;26.48;31.03;102084.84;5090102;28;19920;-68
2022/04/14 12:09:20;;;;;;;;;;;;;;;26.83;31.29;102085.94;5087831;28;20027;-68
2022/04/14 12:11:45;;;;;;;;;;;;;;;27.85;29.70;102086.34;5085703;28;20010;-69
2022/04/14 12:14:11;;;;;;;;;;;;;;;28.58;29.33;102083.59;5083842;28;19916;-69
2022/04/14 12:16:36;;;;;;;;;;;;;;;28.84;29.13;102091.63;5085689;28;19933;-70
2022/04/14 12:19:02;;;;;;;;;;;;;;;28.73;28.62;102083.13;5085479;28;20406;-68
2022/04/14 12:21:28;;;;;;;;;;;;;;;28.48;28.77;102087.38;5090595;28;19920;-70
2022/04/14 12:23:54;;;;;;;;;;;;;;;28.11;30.00;102080.41;5088219;28;19927;-69
2022/04/14 12:26:20;;;;;;;;;;;;;;;27.46;30.79;102090.75;5088435;28;20394;-69
2022/04/14 12:28:46;;;;;;;;;;;;;;;26.94;31.62;102094.50;5087419;28;19963;-69
2022/04/14 12:31:11;;;;;;;;;;;;;;;26.62;32.29;102088.09;5088192;28;20407;-68
2022/04/14 12:33:37;;;;;;;;;;;;;;;26.18;33.21;102094.16;5089316;28;19920;-69